createdAt,value
2019-02-20T00:00:10.704Z,0.50
2019-02-20T00:01:10.673Z,0.50
2019-02-20T00:02:10.754Z,0.00
2019-02-20T00:03:10.740Z,0.00
2019-02-20T00:04:10.761Z,0.00
2019-02-20T00:05:10.756Z,0.10
2019-02-20T00:06:10.678Z,0.10
2019-02-20T00:07:10.754Z,0.30
2019-02-20T00:08:10.643Z,0.00
2019-02-20T00:09:10.724Z,0.40
2019-02-20T00:10:10.819Z,0.40
2019-02-20T00:11:10.749Z,0.20
2019-02-20T00:12:10.695Z,0.20
2019-02-20T00:13:10.653Z,0.40
2019-02-20T00:14:10.730Z,1.20
2019-02-20T00:15:10.616Z,0.20
2019-02-20T00:16:10.735Z,0.40
2019-02-20T00:17:10.695Z,0.60
2019-02-20T00:18:10.744Z,0.00
2019-02-20T00:19:10.659Z,0.30
2019-02-20T00:20:10.687Z,0.90
2019-02-20T00:21:10.739Z,0.20
2019-02-20T00:22:10.635Z,0.00
2019-02-20T00:23:10.682Z,0.00
2019-02-20T00:24:10.752Z,0.00
2019-02-20T00:25:10.753Z,0.00
2019-02-20T00:26:10.683Z,0.00
2019-02-20T00:27:10.756Z,0.00
2019-02-20T00:28:10.762Z,0.00
2019-02-20T00:29:10.687Z,0.00
2019-02-20T00:30:10.761Z,0.00
2019-02-20T00:31:10.696Z,0.00
2019-02-20T00:32:10.758Z,0.00
2019-02-20T00:33:10.694Z,0.00
2019-02-20T00:34:10.726Z,0.00
2019-02-20T00:35:10.705Z,0.00
2019-02-20T00:36:10.757Z,0.00
2019-02-20T00:37:10.752Z,0.00
2019-02-20T00:38:10.713Z,0.00
2019-02-20T00:39:10.754Z,0.00
2019-02-20T00:40:10.762Z,0.00
2019-02-20T00:41:10.652Z,0.00
2019-02-20T00:42:10.667Z,0.00
2019-02-20T00:43:10.787Z,0.00
2019-02-20T00:44:10.782Z,0.00
2019-02-20T00:45:10.778Z,0.00
2019-02-20T00:46:10.706Z,0.00
2019-02-20T00:47:10.781Z,0.00
2019-02-20T00:48:10.787Z,0.00
2019-02-20T00:49:10.778Z,0.00
2019-02-20T00:50:10.709Z,0.00
2019-02-20T00:51:10.731Z,0.00
2019-02-20T00:52:10.784Z,0.00
2019-02-20T00:53:10.793Z,0.00
2019-02-20T00:54:10.713Z,0.00
2019-02-20T00:55:10.785Z,0.00
2019-02-20T00:56:10.798Z,0.00
2019-02-20T00:57:10.792Z,0.00
2019-02-20T00:58:10.727Z,0.00
2019-02-20T00:59:10.787Z,0.00
2019-02-20T01:00:10.714Z,0.00
2019-02-20T01:01:10.804Z,0.00
2019-02-20T01:02:10.786Z,0.00
2019-02-20T01:03:10.738Z,0.00
2019-02-20T01:04:10.745Z,0.00
2019-02-20T01:05:10.802Z,0.00
2019-02-20T01:06:10.800Z,0.00
2019-02-20T01:07:10.733Z,0.00
2019-02-20T01:08:10.740Z,0.00
2019-02-20T01:09:10.808Z,0.00
2019-02-20T01:10:10.806Z,0.00
2019-02-20T01:11:10.772Z,0.00
2019-02-20T01:12:10.755Z,0.00
2019-02-20T01:13:10.788Z,0.00
2019-02-20T01:14:10.722Z,0.00
2019-02-20T01:15:10.789Z,0.00
2019-02-20T01:16:10.789Z,0.00
2019-02-20T01:17:10.721Z,0.00
2019-02-20T01:18:10.793Z,0.00
2019-02-20T01:19:10.796Z,0.00
2019-02-20T01:20:10.723Z,0.00
2019-02-20T01:21:10.858Z,0.00
2019-02-20T01:22:10.794Z,0.00
2019-02-20T01:23:10.787Z,0.00
2019-02-20T01:24:10.767Z,0.00
2019-02-20T01:25:10.699Z,0.00
2019-02-20T01:26:10.841Z,0.00
2019-02-20T01:27:10.855Z,0.00
2019-02-20T01:28:10.786Z,0.00
2019-02-20T01:29:10.817Z,0.00
2019-02-20T01:30:10.749Z,0.00
2019-02-20T01:31:10.767Z,0.10
2019-02-20T01:32:10.820Z,0.20
2019-02-20T01:33:10.823Z,0.00
2019-02-20T01:34:10.813Z,0.00
2019-02-20T01:35:10.764Z,0.10
2019-02-20T01:36:10.702Z,0.40
2019-02-20T01:37:10.864Z,0.00
2019-02-20T01:38:10.760Z,0.00
2019-02-20T01:39:10.783Z,0.00
2019-02-20T01:40:10.733Z,0.00
2019-02-20T01:41:10.814Z,0.00
2019-02-20T01:42:10.790Z,0.00
2019-02-20T01:43:10.707Z,0.00
2019-02-20T01:44:10.822Z,0.00
2019-02-20T01:45:10.831Z,0.00
2019-02-20T01:46:10.831Z,0.00
2019-02-20T01:47:10.775Z,0.00
2019-02-20T01:48:10.747Z,0.10
2019-02-20T01:49:10.750Z,0.60
2019-02-20T01:50:10.768Z,0.00
2019-02-20T01:51:10.769Z,0.00
2019-02-20T01:52:10.764Z,0.00
2019-02-20T01:53:10.823Z,0.20
2019-02-20T01:54:10.803Z,0.00
2019-02-20T01:55:10.816Z,0.00
2019-02-20T01:56:10.738Z,0.10
2019-02-20T01:57:10.701Z,0.20
2019-02-20T01:58:10.828Z,0.00
2019-02-20T01:59:10.808Z,0.00
2019-02-20T02:00:10.811Z,0.00
2019-02-20T02:01:10.766Z,0.00
2019-02-20T02:02:10.742Z,0.00
2019-02-20T02:03:10.852Z,0.00
2019-02-20T02:04:10.842Z,0.00
2019-02-20T02:05:15.366Z,0.00
2019-02-20T02:06:10.781Z,0.00
2019-02-20T02:07:10.776Z,0.00
2019-02-20T02:08:10.780Z,0.00
2019-02-20T02:09:10.836Z,0.00
2019-02-20T02:10:10.836Z,0.00
2019-02-20T02:11:10.844Z,0.00
2019-02-20T02:12:10.844Z,0.00
2019-02-20T02:13:10.783Z,0.00
2019-02-20T02:14:10.845Z,0.00
2019-02-20T02:15:20.007Z,0.00
2019-02-20T02:16:10.772Z,0.00
2019-02-20T02:17:10.842Z,0.00
2019-02-20T02:18:10.842Z,0.00
2019-02-20T02:19:10.863Z,0.00
2019-02-20T02:20:10.770Z,0.00
2019-02-20T02:21:10.816Z,0.00
2019-02-20T02:22:10.843Z,0.00
2019-02-20T02:23:19.402Z,0.00
2019-02-20T02:24:10.825Z,0.00
2019-02-20T02:25:10.783Z,0.00
2019-02-20T02:26:11.227Z,0.00
2019-02-20T02:27:10.795Z,0.00
2019-02-20T02:28:10.745Z,0.00
2019-02-20T02:29:10.725Z,0.00
2019-02-20T02:30:10.875Z,0.00
2019-02-20T02:31:10.832Z,0.00
2019-02-20T02:32:10.964Z,0.00
2019-02-20T02:33:10.842Z,0.00
2019-02-20T02:34:10.789Z,0.00
2019-02-20T02:35:10.846Z,0.00
2019-02-20T02:36:10.861Z,0.00
2019-02-20T02:37:10.913Z,0.00
2019-02-20T02:38:10.848Z,0.00
2019-02-20T02:39:10.777Z,0.00
2019-02-20T02:40:10.850Z,0.00
2019-02-20T02:41:10.801Z,0.00
2019-02-20T02:42:10.850Z,0.00
2019-02-20T02:43:10.804Z,0.00
2019-02-20T02:44:10.814Z,0.00
2019-02-20T02:45:10.871Z,0.00
2019-02-20T02:46:10.874Z,0.00
2019-02-20T02:47:10.821Z,0.00
2019-02-20T02:48:10.803Z,0.00
2019-02-20T02:49:10.861Z,0.00
2019-02-20T02:50:10.857Z,0.00
2019-02-20T02:51:10.810Z,0.00
2019-02-20T02:52:10.865Z,0.00
2019-02-20T02:53:10.880Z,0.00
2019-02-20T02:54:10.750Z,0.00
2019-02-20T02:55:10.737Z,0.00
2019-02-20T02:56:10.786Z,0.00
2019-02-20T02:57:10.790Z,0.00
2019-02-20T02:58:10.766Z,0.00
2019-02-20T02:59:10.787Z,0.00
2019-02-20T03:00:10.829Z,0.00
2019-02-20T03:01:10.845Z,0.00
2019-02-20T03:02:10.873Z,0.00
2019-02-20T03:03:10.772Z,0.00
2019-02-20T03:04:10.905Z,0.00
2019-02-20T03:05:10.900Z,0.00
2019-02-20T03:06:10.827Z,0.00
2019-02-20T03:07:10.858Z,0.00
2019-02-20T03:08:10.845Z,0.00
2019-02-20T03:09:10.780Z,0.00
2019-02-20T03:10:10.835Z,0.00
2019-02-20T03:11:10.823Z,0.00
2019-02-20T03:12:10.826Z,0.00
2019-02-20T03:13:10.854Z,0.00
2019-02-20T03:14:10.869Z,0.00
2019-02-20T03:15:10.801Z,0.00
2019-02-20T03:16:10.811Z,0.00
2019-02-20T03:17:10.883Z,0.00
2019-02-20T03:18:10.809Z,0.00
2019-02-20T03:19:10.879Z,0.00
2019-02-20T03:20:10.882Z,0.00
2019-02-20T03:21:10.890Z,0.00
2019-02-20T03:22:10.810Z,0.00
2019-02-20T03:23:10.810Z,0.00
2019-02-20T03:24:10.895Z,0.00
2019-02-20T03:25:10.974Z,0.00
2019-02-20T03:26:10.832Z,0.00
2019-02-20T03:27:10.898Z,0.00
2019-02-20T03:28:10.895Z,0.00
2019-02-20T03:29:10.894Z,0.00
2019-02-20T03:30:10.892Z,0.00
2019-02-20T03:31:10.922Z,0.00
2019-02-20T03:32:10.846Z,0.00
2019-02-20T03:33:10.900Z,0.00
2019-02-20T03:34:10.818Z,0.00
2019-02-20T03:35:10.887Z,0.00
2019-02-20T03:36:10.818Z,0.00
2019-02-20T03:37:10.886Z,0.00
2019-02-20T03:38:10.887Z,0.00
2019-02-20T03:39:10.835Z,0.00
2019-02-20T03:40:10.917Z,0.00
2019-02-20T03:41:10.825Z,0.00
2019-02-20T03:42:10.821Z,0.00
2019-02-20T03:43:10.858Z,0.00
2019-02-20T03:44:10.896Z,0.00
2019-02-20T03:45:10.993Z,0.00
2019-02-20T03:46:10.894Z,0.00
2019-02-20T03:47:10.862Z,0.00
2019-02-20T03:48:10.890Z,0.00
2019-02-20T03:49:10.845Z,0.00
2019-02-20T03:50:10.832Z,0.00
2019-02-20T03:51:10.831Z,0.00
2019-02-20T03:52:10.898Z,0.00
2019-02-20T03:53:10.835Z,0.00
2019-02-20T03:54:10.839Z,0.00
2019-02-20T03:55:10.859Z,0.00
2019-02-20T03:56:10.906Z,0.00
2019-02-20T03:57:10.829Z,0.00
2019-02-20T03:58:10.840Z,0.00
2019-02-20T03:59:10.905Z,0.00
2019-02-20T04:00:10.833Z,0.00
2019-02-20T04:01:10.830Z,0.00
2019-02-20T04:02:10.908Z,0.00
2019-02-20T04:03:10.910Z,0.00
2019-02-20T04:04:10.843Z,0.00
2019-02-20T04:05:10.911Z,0.00
2019-02-20T04:06:10.914Z,0.00
2019-02-20T04:07:10.844Z,0.00
2019-02-20T04:08:10.908Z,0.00
2019-02-20T04:09:10.879Z,0.00
2019-02-20T04:10:10.842Z,0.00
2019-02-20T04:11:10.988Z,0.00
2019-02-20T04:12:10.850Z,0.00
2019-02-20T04:13:10.910Z,0.00
2019-02-20T04:14:10.880Z,0.00
2019-02-20T04:15:10.915Z,0.00
2019-02-20T04:16:10.959Z,0.00
2019-02-20T04:17:10.812Z,0.00
2019-02-20T04:18:11.147Z,0.00
2019-02-20T04:19:10.872Z,0.00
2019-02-20T04:20:10.894Z,0.00
2019-02-20T04:21:10.842Z,0.00
2019-02-20T04:22:10.938Z,0.00
2019-02-20T04:23:10.945Z,0.00
2019-02-20T04:24:10.918Z,0.00
2019-02-20T04:25:10.923Z,0.00
2019-02-20T04:26:10.921Z,0.00
2019-02-20T04:27:10.918Z,0.00
2019-02-20T04:28:10.910Z,0.00
2019-02-20T04:29:10.885Z,0.00
2019-02-20T04:30:10.916Z,0.00
2019-02-20T04:31:10.929Z,0.00
2019-02-20T04:32:10.919Z,0.00
2019-02-20T04:33:10.924Z,0.00
2019-02-20T04:34:10.890Z,0.00
2019-02-20T04:35:10.879Z,0.00
2019-02-20T04:36:10.948Z,0.00
2019-02-20T04:37:10.948Z,0.00
2019-02-20T04:38:10.889Z,0.00
2019-02-20T04:39:10.885Z,0.00
2019-02-20T04:40:10.886Z,0.00
2019-02-20T04:41:11.057Z,0.00
2019-02-20T04:42:10.887Z,0.00
2019-02-20T04:43:10.888Z,0.00
2019-02-20T04:44:10.998Z,0.00
2019-02-20T04:45:10.920Z,0.00
2019-02-20T04:46:10.837Z,0.00
2019-02-20T04:47:10.942Z,0.00
2019-02-20T04:48:10.887Z,0.00
2019-02-20T04:49:10.917Z,0.00
2019-02-20T04:50:10.983Z,0.00
2019-02-20T04:51:10.843Z,0.00
2019-02-20T04:52:10.945Z,0.00
2019-02-20T04:53:10.919Z,0.00
2019-02-20T04:54:13.663Z,0.00
2019-02-20T04:55:10.945Z,0.00
2019-02-20T04:56:10.979Z,0.00
2019-02-20T04:57:10.984Z,0.00
2019-02-20T04:58:10.948Z,0.00
2019-02-20T04:59:10.950Z,0.00
2019-02-20T05:00:10.923Z,0.00
2019-02-20T05:01:10.908Z,0.00
2019-02-20T05:02:10.974Z,0.00
2019-02-20T05:04:10.997Z,0.00
2019-02-20T05:05:10.960Z,0.00
2019-02-20T05:06:10.891Z,0.00
2019-02-20T05:07:10.980Z,0.00
2019-02-20T05:08:10.901Z,0.00
2019-02-20T05:09:10.926Z,0.00
2019-02-20T05:10:10.965Z,0.00
2019-02-20T05:11:10.967Z,0.00
2019-02-20T05:12:10.915Z,0.00
2019-02-20T05:13:10.968Z,0.00
2019-02-20T05:14:10.973Z,0.00
2019-02-20T05:15:10.923Z,0.00
2019-02-20T05:16:10.921Z,0.00
2019-02-20T05:17:10.854Z,0.00
2019-02-20T05:18:10.911Z,0.00
2019-02-20T05:19:10.928Z,0.10
2019-02-20T05:20:10.918Z,0.00
2019-02-20T05:21:10.977Z,0.00
2019-02-20T05:22:10.974Z,0.10
2019-02-20T05:23:10.974Z,0.00
2019-02-20T05:24:10.917Z,0.00
2019-02-20T05:25:11.048Z,0.00
2019-02-20T05:26:10.931Z,0.00
2019-02-20T05:27:10.922Z,0.00
2019-02-20T05:28:10.899Z,0.00
2019-02-20T05:29:10.919Z,0.00
2019-02-20T05:30:10.931Z,0.00
2019-02-20T05:31:11.008Z,0.00
2019-02-20T05:32:10.991Z,0.00
2019-02-20T05:33:11.001Z,0.00
2019-02-20T05:34:10.913Z,0.00
2019-02-20T05:35:10.932Z,0.00
2019-02-20T05:36:10.911Z,0.00
2019-02-20T05:37:10.934Z,0.00
2019-02-20T05:38:11.011Z,0.00
2019-02-20T05:39:10.940Z,0.00
2019-02-20T05:40:10.989Z,0.10
2019-02-20T05:41:10.919Z,0.00
2019-02-20T05:42:10.992Z,0.00
2019-02-20T05:43:11.001Z,0.00
2019-02-20T05:44:10.881Z,0.00
2019-02-20T05:45:10.870Z,0.00
2019-02-20T05:46:10.966Z,0.00
2019-02-20T05:47:10.899Z,0.00
2019-02-20T05:48:10.911Z,0.00
2019-02-20T05:49:10.920Z,0.00
2019-02-20T05:50:10.914Z,0.00
2019-02-20T05:51:10.977Z,0.00
2019-02-20T05:52:10.929Z,0.00
2019-02-20T05:53:10.916Z,0.00
2019-02-20T05:54:10.883Z,0.00
2019-02-20T05:55:10.878Z,0.00
2019-02-20T05:56:10.959Z,0.00
2019-02-20T05:57:10.841Z,0.00
2019-02-20T05:58:10.886Z,0.00
2019-02-20T05:59:10.838Z,0.00
2019-02-20T06:00:10.923Z,0.00
2019-02-20T06:01:10.851Z,0.00
2019-02-20T06:02:10.893Z,0.00
2019-02-20T06:03:10.882Z,0.00
2019-02-20T06:04:11.016Z,0.00
2019-02-20T06:05:10.959Z,0.00
2019-02-20T06:06:11.006Z,0.00
2019-02-20T06:07:10.937Z,0.00
2019-02-20T06:08:10.954Z,0.00
2019-02-20T06:09:11.011Z,0.00
2019-02-20T06:10:11.019Z,0.00
2019-02-20T06:11:14.958Z,0.00
2019-02-20T06:12:10.963Z,0.00
2019-02-20T06:13:11.008Z,0.00
2019-02-20T06:14:10.929Z,0.00
2019-02-20T06:15:10.998Z,0.00
2019-02-20T06:16:11.011Z,0.00
2019-02-20T06:17:10.932Z,0.00
2019-02-20T06:18:11.001Z,0.00
2019-02-20T06:19:10.939Z,0.00
2019-02-20T06:20:10.966Z,0.00
2019-02-20T06:21:10.961Z,0.00
2019-02-20T06:22:10.935Z,0.00
2019-02-20T06:23:11.002Z,0.00
2019-02-20T06:24:11.005Z,0.00
2019-02-20T06:25:10.938Z,0.00
2019-02-20T06:26:10.942Z,0.00
2019-02-20T06:27:10.959Z,0.00
2019-02-20T06:28:11.001Z,0.00
2019-02-20T06:29:10.917Z,0.00
2019-02-20T06:30:10.999Z,0.00
2019-02-20T06:31:10.991Z,0.00
2019-02-20T06:32:10.910Z,0.00
2019-02-20T06:33:10.939Z,0.00
2019-02-20T06:34:11.030Z,0.00
2019-02-20T06:35:10.934Z,0.00
2019-02-20T06:36:10.952Z,0.00
2019-02-20T06:37:10.994Z,0.00
2019-02-20T06:38:11.719Z,0.00
2019-02-20T06:39:10.916Z,0.00
2019-02-20T06:40:10.997Z,0.00
2019-02-20T06:41:11.041Z,0.00
2019-02-20T06:42:11.055Z,0.00
2019-02-20T06:43:10.982Z,0.00
2019-02-20T06:44:11.023Z,0.00
2019-02-20T06:45:10.921Z,0.00
2019-02-20T06:46:10.928Z,0.00
2019-02-20T06:47:10.988Z,0.00
2019-02-20T06:48:10.960Z,0.00
2019-02-20T06:49:10.970Z,0.00
2019-02-20T06:50:10.897Z,0.00
2019-02-20T06:51:10.987Z,0.00
2019-02-20T06:52:10.909Z,0.00
2019-02-20T06:53:10.934Z,0.00
2019-02-20T06:54:10.937Z,0.00
2019-02-20T06:55:10.894Z,0.00
2019-02-20T06:56:10.926Z,0.00
2019-02-20T06:57:10.956Z,0.00
2019-02-20T06:58:10.982Z,0.00
2019-02-20T06:59:10.920Z,0.00
2019-02-20T07:00:10.895Z,0.00
2019-02-20T07:01:10.897Z,0.00
2019-02-20T07:02:10.902Z,0.00
2019-02-20T07:03:10.864Z,0.00
2019-02-20T07:04:11.044Z,0.00
2019-02-20T07:05:11.042Z,0.00
2019-02-20T07:06:11.045Z,0.00
2019-02-20T07:07:11.053Z,0.00
2019-02-20T07:08:10.974Z,0.00
2019-02-20T07:09:11.046Z,0.00
2019-02-20T07:10:11.046Z,0.00
2019-02-20T07:11:11.001Z,0.00
2019-02-20T07:12:11.065Z,0.00
2019-02-20T07:13:10.989Z,0.00
2019-02-20T07:14:11.018Z,0.00
2019-02-20T07:15:11.057Z,0.00
2019-02-20T07:16:10.989Z,0.00
2019-02-20T07:17:11.074Z,0.00
2019-02-20T07:18:11.049Z,0.00
2019-02-20T07:19:11.059Z,0.00
2019-02-20T07:20:11.082Z,0.00
2019-02-20T07:21:10.992Z,0.00
2019-02-20T07:22:10.995Z,0.00
2019-02-20T07:23:10.985Z,0.00
2019-02-20T07:24:10.967Z,0.00
2019-02-20T07:25:10.993Z,0.00
2019-02-20T07:26:10.972Z,0.00
2019-02-20T07:27:10.933Z,0.00
2019-02-20T07:28:10.978Z,0.00
2019-02-20T07:29:10.938Z,0.00
2019-02-20T07:30:10.988Z,0.00
2019-02-20T07:31:11.061Z,0.00
2019-02-20T07:32:10.973Z,0.00
2019-02-20T07:33:11.054Z,0.00
2019-02-20T07:34:10.984Z,0.00
2019-02-20T07:35:11.051Z,0.00
2019-02-20T07:36:11.022Z,0.00
2019-02-20T07:37:11.064Z,0.00
2019-02-20T07:38:11.000Z,0.00
2019-02-20T07:39:11.054Z,0.00
2019-02-20T07:40:10.981Z,0.00
2019-02-20T07:41:11.055Z,0.00
2019-02-20T07:42:10.993Z,0.00
2019-02-20T07:43:10.992Z,0.00
2019-02-20T07:44:10.941Z,0.00
2019-02-20T07:45:10.964Z,0.00
2019-02-20T07:46:11.016Z,0.00
2019-02-20T07:47:11.016Z,0.00
2019-02-20T07:48:11.006Z,0.00
2019-02-20T07:49:10.986Z,0.00
2019-02-20T07:50:11.038Z,0.00
2019-02-20T07:51:10.933Z,0.00
2019-02-20T07:52:10.921Z,0.00
2019-02-20T07:53:10.939Z,0.00
2019-02-20T07:54:11.000Z,0.00
2019-02-20T07:55:13.569Z,0.00
2019-02-20T07:56:11.070Z,0.00
2019-02-20T07:57:11.069Z,0.00
2019-02-20T07:58:11.001Z,0.00
2019-02-20T07:59:11.070Z,0.00
2019-02-20T08:00:11.017Z,0.00
2019-02-20T08:01:11.071Z,0.00
2019-02-20T08:02:11.003Z,0.00
2019-02-20T08:03:11.080Z,0.00
2019-02-20T08:04:10.995Z,0.00
2019-02-20T08:05:11.075Z,0.00
2019-02-20T08:06:11.069Z,0.00
2019-02-20T08:07:10.965Z,0.00
2019-02-20T08:08:10.983Z,0.00
2019-02-20T08:09:11.041Z,0.00
2019-02-20T08:10:11.116Z,0.00
2019-02-20T08:11:11.010Z,0.00
2019-02-20T08:12:11.021Z,0.00
2019-02-20T08:13:11.018Z,0.00
2019-02-20T08:14:11.023Z,0.00
2019-02-20T08:15:11.107Z,0.00
2019-02-20T08:16:11.101Z,0.00
2019-02-20T08:17:11.092Z,0.00
2019-02-20T08:18:11.099Z,0.00
2019-02-20T08:19:11.043Z,0.00
2019-02-20T08:20:11.099Z,0.00
2019-02-20T08:21:11.111Z,0.00
2019-02-20T08:22:11.038Z,0.00
2019-02-20T08:23:11.023Z,0.00
2019-02-20T08:24:11.037Z,0.00
2019-02-20T08:25:11.043Z,0.00
2019-02-20T08:26:10.989Z,0.00
2019-02-20T08:27:11.034Z,0.00
2019-02-20T08:28:10.994Z,0.00
2019-02-20T08:29:11.097Z,0.00
2019-02-20T08:30:11.040Z,0.00
2019-02-20T08:31:11.046Z,0.00
2019-02-20T08:32:11.034Z,0.00
2019-02-20T08:33:10.998Z,0.00
2019-02-20T08:34:11.103Z,0.00
2019-02-20T08:35:11.033Z,0.00
2019-02-20T08:36:11.046Z,0.00
2019-02-20T08:37:11.106Z,0.00
2019-02-20T08:38:11.185Z,0.00
2019-02-20T08:39:11.038Z,0.00
2019-02-20T08:40:11.169Z,0.00
2019-02-20T08:41:11.064Z,0.00
2019-02-20T08:42:11.115Z,0.00
2019-02-20T08:43:11.039Z,0.00
2019-02-20T08:44:11.102Z,0.00
2019-02-20T08:45:11.032Z,0.00
2019-02-20T08:46:11.030Z,0.00
2019-02-20T08:47:11.110Z,0.00
2019-02-20T08:48:11.016Z,0.00
2019-02-20T08:49:11.112Z,0.00
2019-02-20T08:50:11.106Z,0.00
2019-02-20T08:51:11.105Z,0.00
2019-02-20T08:52:11.017Z,0.00
2019-02-20T08:53:11.037Z,0.00
2019-02-20T08:54:11.117Z,0.00
2019-02-20T08:55:11.039Z,0.00
2019-02-20T08:56:11.183Z,0.00
2019-02-20T08:57:11.038Z,0.00
2019-02-20T08:58:11.130Z,0.00
2019-02-20T08:59:11.048Z,0.00
2019-02-20T09:00:11.115Z,0.00
2019-02-20T09:01:11.043Z,0.00
2019-02-20T09:02:11.118Z,0.00
2019-02-20T09:03:11.046Z,0.00
2019-02-20T09:04:11.011Z,0.00
2019-02-20T09:05:11.137Z,0.00
2019-02-20T09:06:11.054Z,0.00
2019-02-20T09:07:11.137Z,0.00
2019-02-20T09:08:11.017Z,0.00
2019-02-20T09:09:11.146Z,0.00
2019-02-20T09:10:11.094Z,0.00
2019-02-20T09:11:11.131Z,0.00
2019-02-20T09:12:11.096Z,0.00
2019-02-20T09:13:11.135Z,0.00
2019-02-20T09:14:11.065Z,0.00
2019-02-20T09:15:11.100Z,0.00
2019-02-20T09:16:11.118Z,0.00
2019-02-20T09:17:11.026Z,0.00
2019-02-20T09:18:11.115Z,0.00
2019-02-20T09:19:11.002Z,0.00
2019-02-20T09:20:11.056Z,0.00
2019-02-20T09:21:11.126Z,0.00
2019-02-20T09:22:11.180Z,0.00
2019-02-20T09:23:11.053Z,0.00
2019-02-20T09:24:11.060Z,0.00
2019-02-20T09:25:19.504Z,0.00
2019-02-20T09:26:11.056Z,0.00
2019-02-20T09:27:11.165Z,0.00
2019-02-20T09:28:11.057Z,0.30
2019-02-20T09:29:11.074Z,0.00
2019-02-20T09:30:11.134Z,0.30
2019-02-20T09:31:11.133Z,0.00
2019-02-20T09:32:11.077Z,0.00
2019-02-20T09:33:11.062Z,0.00
2019-02-20T09:34:11.096Z,0.00
2019-02-20T09:35:11.088Z,0.00
2019-02-20T09:36:11.065Z,0.80
2019-02-20T09:37:11.083Z,0.30
2019-02-20T09:38:11.088Z,1.00
2019-02-20T09:39:11.079Z,0.30
2019-02-20T09:40:11.126Z,0.30
2019-02-20T09:41:11.071Z,0.00
2019-02-20T09:42:11.108Z,0.00
2019-02-20T09:43:11.078Z,0.30
2019-02-20T09:44:11.115Z,0.00
2019-02-20T09:45:11.071Z,0.00
2019-02-20T09:46:11.040Z,0.30
2019-02-20T09:47:11.070Z,0.30
2019-02-20T09:48:11.153Z,0.30
2019-02-20T09:49:11.074Z,0.10
2019-02-20T09:50:11.082Z,0.00
2019-02-20T09:51:11.072Z,0.00
2019-02-20T09:52:11.072Z,0.00
2019-02-20T09:53:11.084Z,0.30
2019-02-20T09:54:11.058Z,0.10
2019-02-20T09:55:11.153Z,0.60
2019-02-20T09:56:11.135Z,0.40
2019-02-20T09:57:11.140Z,0.20
2019-02-20T09:58:11.147Z,1.30
2019-02-20T09:59:11.158Z,1.00
2019-02-20T10:00:11.101Z,1.90
2019-02-20T10:01:11.146Z,0.50
2019-02-20T10:02:11.039Z,0.10
2019-02-20T10:03:11.065Z,0.10
2019-02-20T10:04:11.145Z,0.00
2019-02-20T10:05:11.033Z,0.10
2019-02-20T10:06:12.929Z,0.50
2019-02-20T10:07:11.161Z,0.00
2019-02-20T10:08:11.102Z,0.00
2019-02-20T10:09:11.081Z,0.10
2019-02-20T10:10:11.095Z,0.00
2019-02-20T10:11:11.158Z,0.00
2019-02-20T10:12:11.041Z,0.10
2019-02-20T10:13:11.608Z,0.00
2019-02-20T10:14:11.128Z,0.00
2019-02-20T10:15:11.105Z,0.00
2019-02-20T10:16:11.136Z,0.00
2019-02-20T10:17:11.103Z,0.00
2019-02-20T10:18:12.259Z,0.00
2019-02-20T10:19:11.126Z,0.00
2019-02-20T10:20:11.176Z,0.00
2019-02-20T10:21:11.123Z,0.00
2019-02-20T10:22:11.111Z,0.00
2019-02-20T10:23:11.204Z,0.00
2019-02-20T10:24:11.189Z,0.00
2019-02-20T10:25:11.183Z,0.00
2019-02-20T10:26:11.177Z,0.00
2019-02-20T10:27:11.056Z,0.00
2019-02-20T10:28:11.173Z,0.00
2019-02-20T10:29:11.111Z,0.00
2019-02-20T10:30:11.103Z,0.00
2019-02-20T10:31:11.184Z,0.00
2019-02-20T10:32:11.108Z,0.00
2019-02-20T10:33:11.103Z,0.00
2019-02-20T10:34:11.268Z,0.00
2019-02-20T10:35:11.186Z,0.00
2019-02-20T10:36:11.127Z,0.00
2019-02-20T10:37:11.126Z,0.00
2019-02-20T10:38:11.192Z,0.00
2019-02-20T10:39:11.136Z,0.00
2019-02-20T10:40:11.082Z,0.00
2019-02-20T10:41:11.188Z,0.20
2019-02-20T10:42:11.125Z,0.00
2019-02-20T10:43:11.121Z,0.00
2019-02-20T10:44:11.259Z,0.00
2019-02-20T10:45:11.131Z,0.00
2019-02-20T10:46:11.138Z,0.00
2019-02-20T10:47:11.231Z,0.00
2019-02-20T10:48:11.140Z,0.00
2019-02-20T10:49:11.192Z,0.00
2019-02-20T10:50:11.150Z,0.00
2019-02-20T10:51:11.196Z,0.10
2019-02-20T10:52:11.145Z,0.00
2019-02-20T10:53:11.198Z,0.40
2019-02-20T10:54:11.131Z,0.40
2019-02-20T10:55:11.225Z,0.20
2019-02-20T10:56:11.157Z,0.00
2019-02-20T10:57:11.204Z,1.00
2019-02-20T10:58:11.138Z,0.60
2019-02-20T10:59:11.134Z,0.50
2019-02-20T11:00:11.143Z,3.10
2019-02-20T11:01:11.207Z,0.30
2019-02-20T11:02:11.209Z,0.40
2019-02-20T11:03:11.136Z,0.30
2019-02-20T11:04:11.144Z,0.00
2019-02-20T11:05:11.275Z,0.00
2019-02-20T11:06:11.158Z,0.00
2019-02-20T11:07:11.210Z,0.00
2019-02-20T11:08:11.215Z,0.00
2019-02-20T11:09:11.140Z,0.00
2019-02-20T11:10:11.160Z,1.40
2019-02-20T11:11:11.143Z,0.10
2019-02-20T11:12:11.154Z,0.20
2019-02-20T11:13:11.228Z,0.40
2019-02-20T11:14:11.148Z,0.90
2019-02-20T11:15:13.093Z,0.70
2019-02-20T11:16:11.139Z,0.00
2019-02-20T11:17:11.130Z,0.00
2019-02-20T11:18:11.142Z,0.00
2019-02-20T11:19:11.209Z,0.20
2019-02-20T11:20:11.225Z,0.00
2019-02-20T11:21:11.092Z,0.40
2019-02-20T11:22:11.216Z,0.90
2019-02-20T11:23:11.212Z,0.40
2019-02-20T11:24:11.211Z,0.20
2019-02-20T11:25:11.225Z,0.80
2019-02-20T11:26:17.805Z,0.00
2019-02-20T11:27:11.224Z,1.50
2019-02-20T11:28:11.226Z,1.20
2019-02-20T11:29:11.228Z,0.80
2019-02-20T11:30:11.158Z,0.10
2019-02-20T11:31:11.237Z,0.00
2019-02-20T11:32:11.227Z,0.04
2019-02-20T11:33:11.161Z,0.00
2019-02-20T11:34:11.229Z,0.40
2019-02-20T11:35:11.166Z,3.30
2019-02-20T11:36:11.206Z,0.90
2019-02-20T11:37:11.159Z,0.60
2019-02-20T11:38:11.237Z,0.50
2019-02-20T11:39:11.737Z,0.90
2019-02-20T11:40:11.241Z,0.20
2019-02-20T11:41:11.165Z,0.10
2019-02-20T11:42:11.234Z,0.40
2019-02-20T11:43:11.240Z,1.00
2019-02-20T11:44:11.249Z,1.40
2019-02-20T11:45:11.227Z,0.00
2019-02-20T11:46:11.159Z,0.40
2019-02-20T11:47:11.154Z,1.00
2019-02-20T11:48:11.127Z,1.70
2019-02-20T11:49:11.159Z,1.30
2019-02-20T11:50:11.232Z,1.60
2019-02-20T11:51:11.271Z,1.60
2019-02-20T11:52:11.125Z,1.30
2019-02-20T11:53:11.232Z,2.10
2019-02-20T11:54:11.162Z,0.70
2019-02-20T11:55:11.163Z,2.30
2019-02-20T11:56:12.334Z,2.10
2019-02-20T11:57:11.287Z,0.80
2019-02-20T11:58:11.235Z,0.30
2019-02-20T11:59:11.177Z,2.90
2019-02-20T12:00:11.240Z,3.00
2019-02-20T12:01:11.166Z,1.50
2019-02-20T12:02:11.242Z,1.60
2019-02-20T12:03:11.241Z,1.40
2019-02-20T12:04:11.178Z,1.10
2019-02-20T12:05:11.178Z,2.10
2019-02-20T12:06:11.270Z,3.00
2019-02-20T12:07:11.258Z,2.00
2019-02-20T12:08:11.188Z,2.30
2019-02-20T12:09:11.260Z,2.20
2019-02-20T12:10:12.707Z,1.00
2019-02-20T12:11:11.251Z,2.30
2019-02-20T12:12:11.212Z,1.60
2019-02-20T12:13:11.185Z,1.60
2019-02-20T12:14:11.200Z,1.80
2019-02-20T12:15:11.275Z,1.60
2019-02-20T12:16:11.203Z,0.70
2019-02-20T12:17:11.189Z,0.90
2019-02-20T12:18:17.206Z,2.50
2019-02-20T12:19:11.265Z,1.10
2019-02-20T12:20:11.262Z,0.10
2019-02-20T12:21:11.216Z,0.80
2019-02-20T12:22:11.261Z,0.60
2019-02-20T12:23:11.193Z,0.90
2019-02-20T12:24:11.931Z,0.10
2019-02-20T12:25:11.248Z,0.30
2019-02-20T12:26:11.294Z,0.40
2019-02-20T12:27:11.254Z,0.70
2019-02-20T12:28:11.131Z,2.30
2019-02-20T12:29:11.374Z,2.00
2019-02-20T12:30:11.209Z,1.40
2019-02-20T12:31:11.194Z,0.40
2019-02-20T12:32:11.195Z,1.50
2019-02-20T12:33:11.168Z,0.50
2019-02-20T12:34:11.161Z,2.10
2019-02-20T12:35:11.364Z,1.40
2019-02-20T12:36:11.270Z,0.50
2019-02-20T12:37:11.196Z,0.40
2019-02-20T12:38:11.273Z,0.80
2019-02-20T12:39:11.268Z,0.70
2019-02-20T12:40:11.269Z,1.60
2019-02-20T12:41:11.192Z,1.00
2019-02-20T12:42:12.954Z,1.20
2019-02-20T12:43:11.269Z,1.80
2019-02-20T12:44:11.200Z,1.80
2019-02-20T12:45:11.235Z,1.40
2019-02-20T12:46:11.193Z,0.40
2019-02-20T12:47:11.163Z,1.10
2019-02-20T12:48:11.137Z,0.10
2019-02-20T12:49:11.233Z,1.20
2019-02-20T12:50:11.203Z,1.20
2019-02-20T12:51:11.201Z,0.30
2019-02-20T12:52:11.253Z,0.50
2019-02-20T12:53:11.146Z,1.00
2019-02-20T12:54:11.233Z,0.80
2019-02-20T12:55:11.201Z,0.60
2019-02-20T12:56:11.279Z,2.10
2019-02-20T12:57:11.159Z,0.30
2019-02-20T12:58:11.278Z,1.10
2019-02-20T12:59:11.189Z,1.10
2019-02-20T13:00:11.205Z,1.30
2019-02-20T13:01:11.185Z,1.30
2019-02-20T13:02:11.153Z,2.00
2019-02-20T13:03:11.223Z,1.30
2019-02-20T13:04:11.242Z,0.20
2019-02-20T13:05:11.243Z,0.10
2019-02-20T13:06:11.241Z,0.60
2019-02-20T13:07:11.298Z,0.80
2019-02-20T13:08:11.233Z,0.80
2019-02-20T13:09:11.300Z,1.00
2019-02-20T13:10:11.306Z,1.60
2019-02-20T13:11:11.394Z,3.10
2019-02-20T13:12:11.299Z,0.90
2019-02-20T13:13:11.231Z,1.20
2019-02-20T13:14:11.231Z,0.00
2019-02-20T13:15:11.302Z,0.10
2019-02-20T13:16:11.309Z,0.60
2019-02-20T13:17:11.229Z,0.70
2019-02-20T13:18:11.296Z,0.50
2019-02-20T13:19:11.196Z,0.50